sensor_id;sensor_type;location;lat;lon;timestamp;P1;durP1;ratioP1;P2;durP2;ratioP2
6344;SDS011;3205;42.666;23.264;2023-09-07T00:00:30;13.48;;;7.18;;
6344;SDS011;3205;42.666;23.264;2023-09-07T00:02:56;10.50;;;7.40;;
6344;SDS011;3205;42.666;23.264;2023-09-07T00:05:22;15.02;;;7.30;;
6344;SDS011;3205;42.666;23.264;2023-09-07T00:07:48;9.10;;;7.38;;
6344;SDS011;3205;42.666;23.264;2023-09-07T00:10:14;11.63;;;7.72;;
6344;SDS011;3205;42.666;23.264;2023-09-07T00:12:42;8.15;;;7.38;;
6344;SDS011;3205;42.666;23.264;2023-09-07T00:15:10;9.10;;;8.02;;
6344;SDS011;3205;42.666;23.264;2023-09-07T00:17:36;8.75;;;7.85;;
6344;SDS011;3205;42.666;23.264;2023-09-07T00:20:02;12.25;;;8.88;;
6344;SDS011;3205;42.666;23.264;2023-09-07T00:22:34;10.93;;;7.75;;
6344;SDS011;3205;42.666;23.264;2023-09-07T00:25:00;10.80;;;8.30;;
6344;SDS011;3205;42.666;23.264;2023-09-07T00:27:28;11.30;;;8.13;;
6344;SDS011;3205;42.666;23.264;2023-09-07T00:29:55;10.15;;;8.65;;
6344;SDS011;3205;42.666;23.264;2023-09-07T00:32:21;9.75;;;8.48;;
6344;SDS011;3205;42.666;23.264;2023-09-07T00:34:47;15.93;;;9.85;;
6344;SDS011;3205;42.666;23.264;2023-09-07T00:37:14;10.80;;;8.13;;
6344;SDS011;3205;42.666;23.264;2023-09-07T00:39:40;10.80;;;8.48;;
6344;SDS011;3205;42.666;23.264;2023-09-07T00:42:06;16.42;;;9.80;;
6344;SDS011;3205;42.666;23.264;2023-09-07T00:44:32;14.40;;;10.98;;
6344;SDS011;3205;42.666;23.264;2023-09-07T00:46:59;11.88;;;10.77;;
6344;SDS011;3205;42.666;23.264;2023-09-07T00:49:26;20.95;;;12.63;;
6344;SDS011;3205;42.666;23.264;2023-09-07T00:51:53;13.32;;;11.68;;
6344;SDS011;3205;42.666;23.264;2023-09-07T00:54:19;14.77;;;10.80;;
6344;SDS011;3205;42.666;23.264;2023-09-07T00:56:45;16.17;;;11.27;;
6344;SDS011;3205;42.666;23.264;2023-09-07T00:59:11;16.67;;;11.05;;
6344;SDS011;3205;42.666;23.264;2023-09-07T01:01:38;15.57;;;13.00;;
6344;SDS011;3205;42.666;23.264;2023-09-07T01:04:05;15.68;;;13.95;;
6344;SDS011;3205;42.666;23.264;2023-09-07T01:06:32;17.88;;;12.25;;
6344;SDS011;3205;42.666;23.264;2023-09-07T01:09:04;18.02;;;13.57;;
6344;SDS011;3205;42.666;23.264;2023-09-07T01:11:36;17.25;;;13.23;;
6344;SDS011;3205;42.666;23.264;2023-09-07T01:14:03;20.52;;;13.40;;
6344;SDS011;3205;42.666;23.264;2023-09-07T01:16:29;17.08;;;12.75;;
6344;SDS011;3205;42.666;23.264;2023-09-07T01:18:56;15.90;;;14.13;;
6344;SDS011;3205;42.666;23.264;2023-09-07T01:21:22;18.17;;;15.18;;
6344;SDS011;3205;42.666;23.264;2023-09-07T01:23:49;18.15;;;14.27;;
6344;SDS011;3205;42.666;23.264;2023-09-07T01:26:17;19.25;;;14.90;;
6344;SDS011;3205;42.666;23.264;2023-09-07T01:28:43;16.58;;;14.57;;
6344;SDS011;3205;42.666;23.264;2023-09-07T01:31:09;23.08;;;15.70;;
6344;SDS011;3205;42.666;23.264;2023-09-07T01:33:35;24.35;;;15.40;;
6344;SDS011;3205;42.666;23.264;2023-09-07T01:36:01;17.77;;;15.23;;
6344;SDS011;3205;42.666;23.264;2023-09-07T01:38:28;20.65;;;15.65;;
6344;SDS011;3205;42.666;23.264;2023-09-07T01:40:55;18.83;;;15.38;;
6344;SDS011;3205;42.666;23.264;2023-09-07T01:43:21;20.42;;;15.15;;
6344;SDS011;3205;42.666;23.264;2023-09-07T01:45:47;20.52;;;15.82;;
6344;SDS011;3205;42.666;23.264;2023-09-07T01:48:14;27.55;;;17.45;;
6344;SDS011;3205;42.666;23.264;2023-09-07T01:50:40;19.70;;;15.35;;
6344;SDS011;3205;42.666;23.264;2023-09-07T01:53:06;22.95;;;16.17;;
6344;SDS011;3205;42.666;23.264;2023-09-07T01:55:33;18.60;;;14.82;;
6344;SDS011;3205;42.666;23.264;2023-09-07T01:57:59;21.85;;;15.60;;
6344;SDS011;3205;42.666;23.264;2023-09-07T02:00:25;18.80;;;14.40;;
6344;SDS011;3205;42.666;23.264;2023-09-07T02:02:52;16.77;;;15.07;;
6344;SDS011;3205;42.666;23.264;2023-09-07T02:05:18;26.63;;;15.63;;
6344;SDS011;3205;42.666;23.264;2023-09-07T02:07:44;21.27;;;16.70;;
6344;SDS011;3205;42.666;23.264;2023-09-07T02:10:10;20.65;;;15.88;;
6344;SDS011;3205;42.666;23.264;2023-09-07T02:12:37;24.13;;;16.17;;
6344;SDS011;3205;42.666;23.264;2023-09-07T02:15:04;20.73;;;14.98;;
6344;SDS011;3205;42.666;23.264;2023-09-07T02:17:31;16.90;;;14.60;;
6344;SDS011;3205;42.666;23.264;2023-09-07T02:19:57;20.17;;;14.70;;
6344;SDS011;3205;42.666;23.264;2023-09-07T02:22:24;18.70;;;14.77;;
6344;SDS011;3205;42.666;23.264;2023-09-07T02:24:50;23.52;;;15.23;;
6344;SDS011;3205;42.666;23.264;2023-09-07T02:27:16;24.05;;;16.02;;
6344;SDS011;3205;42.666;23.264;2023-09-07T02:29:42;22.45;;;14.80;;
6344;SDS011;3205;42.666;23.264;2023-09-07T02:32:09;20.10;;;15.60;;
6344;SDS011;3205;42.666;23.264;2023-09-07T02:34:35;18.08;;;14.80;;
6344;SDS011;3205;42.666;23.264;2023-09-07T02:37:01;23.48;;;14.35;;
6344;SDS011;3205;42.666;23.264;2023-09-07T02:39:27;16.80;;;14.90;;
6344;SDS011;3205;42.666;23.264;2023-09-07T02:41:53;18.30;;;14.13;;
6344;SDS011;3205;42.666;23.264;2023-09-07T02:44:20;16.80;;;13.93;;
6344;SDS011;3205;42.666;23.264;2023-09-07T02:46:46;18.20;;;14.80;;
6344;SDS011;3205;42.666;23.264;2023-09-07T02:49:12;23.20;;;15.07;;
6344;SDS011;3205;42.666;23.264;2023-09-07T02:51:39;18.38;;;14.57;;
6344;SDS011;3205;42.666;23.264;2023-09-07T02:54:05;19.88;;;14.32;;
6344;SDS011;3205;42.666;23.264;2023-09-07T02:56:31;23.63;;;14.52;;
6344;SDS011;3205;42.666;23.264;2023-09-07T02:58:57;20.88;;;15.38;;
6344;SDS011;3205;42.666;23.264;2023-09-07T03:01:23;21.02;;;15.40;;
6344;SDS011;3205;42.666;23.264;2023-09-07T03:03:49;23.02;;;15.90;;
6344;SDS011;3205;42.666;23.264;2023-09-07T03:06:16;18.17;;;15.45;;
6344;SDS011;3205;42.666;23.264;2023-09-07T03:08:42;22.63;;;17.13;;
6344;SDS011;3205;42.666;23.264;2023-09-07T03:11:09;19.65;;;16.52;;
6344;SDS011;3205;42.666;23.264;2023-09-07T03:13:35;23.75;;;17.25;;
6344;SDS011;3205;42.666;23.264;2023-09-07T03:16:01;20.45;;;16.80;;
6344;SDS011;3205;42.666;23.264;2023-09-07T03:18:29;21.65;;;17.50;;
6344;SDS011;3205;42.666;23.264;2023-09-07T03:20:55;21.00;;;16.58;;
6344;SDS011;3205;42.666;23.264;2023-09-07T03:26:33;22.25;;;17.65;;
6344;SDS011;3205;42.666;23.264;2023-09-07T03:29:00;24.40;;;16.92;;
6344;SDS011;3205;42.666;23.264;2023-09-07T03:31:26;23.83;;;18.13;;
6344;SDS011;3205;42.666;23.264;2023-09-07T03:33:52;20.15;;;16.08;;
6344;SDS011;3205;42.666;23.264;2023-09-07T03:36:18;24.13;;;17.40;;
6344;SDS011;3205;42.666;23.264;2023-09-07T03:38:44;25.35;;;17.48;;
6344;SDS011;3205;42.666;23.264;2023-09-07T03:41:10;27.13;;;19.70;;
6344;SDS011;3205;42.666;23.264;2023-09-07T03:43:37;22.45;;;18.38;;
6344;SDS011;3205;42.666;23.264;2023-09-07T03:46:03;27.92;;;19.42;;
6344;SDS011;3205;42.666;23.264;2023-09-07T03:48:29;24.83;;;20.35;;
6344;SDS011;3205;42.666;23.264;2023-09-07T03:50:55;26.23;;;20.20;;
6344;SDS011;3205;42.666;23.264;2023-09-07T03:53:21;26.73;;;19.33;;
6344;SDS011;3205;42.666;23.264;2023-09-07T03:55:47;24.13;;;18.85;;
6344;SDS011;3205;42.666;23.264;2023-09-07T03:58:13;25.42;;;18.73;;
6344;SDS011;3205;42.666;23.264;2023-09-07T04:00:40;26.98;;;20.90;;
6344;SDS011;3205;42.666;23.264;2023-09-07T04:03:07;25.45;;;18.90;;
6344;SDS011;3205;42.666;23.264;2023-09-07T04:05:33;24.10;;;19.13;;
6344;SDS011;3205;42.666;23.264;2023-09-07T04:07:59;23.15;;;19.27;;
6344;SDS011;3205;42.666;23.264;2023-09-07T04:10:25;24.80;;;20.20;;
6344;SDS011;3205;42.666;23.264;2023-09-07T04:12:51;25.65;;;19.15;;
6344;SDS011;3205;42.666;23.264;2023-09-07T04:15:18;23.60;;;19.45;;
6344;SDS011;3205;42.666;23.264;2023-09-07T04:17:44;20.63;;;18.23;;
6344;SDS011;3205;42.666;23.264;2023-09-07T04:20:11;28.02;;;18.60;;
6344;SDS011;3205;42.666;23.264;2023-09-07T04:22:38;28.17;;;20.58;;
6344;SDS011;3205;42.666;23.264;2023-09-07T04:25:04;28.80;;;22.40;;
6344;SDS011;3205;42.666;23.264;2023-09-07T04:27:31;26.52;;;21.23;;
6344;SDS011;3205;42.666;23.264;2023-09-07T04:29:57;32.38;;;20.52;;
6344;SDS011;3205;42.666;23.264;2023-09-07T04:32:23;25.13;;;20.40;;
6344;SDS011;3205;42.666;23.264;2023-09-07T04:34:53;28.58;;;19.30;;
6344;SDS011;3205;42.666;23.264;2023-09-07T04:37:20;24.33;;;19.08;;
6344;SDS011;3205;42.666;23.264;2023-09-07T04:39:46;27.83;;;19.85;;
6344;SDS011;3205;42.666;23.264;2023-09-07T04:42:13;28.08;;;19.27;;
6344;SDS011;3205;42.666;23.264;2023-09-07T04:44:39;26.15;;;18.77;;
6344;SDS011;3205;42.666;23.264;2023-09-07T04:47:06;26.73;;;19.17;;
6344;SDS011;3205;42.666;23.264;2023-09-07T04:49:32;24.65;;;20.17;;
6344;SDS011;3205;42.666;23.264;2023-09-07T04:51:59;23.70;;;17.63;;
6344;SDS011;3205;42.666;23.264;2023-09-07T04:54:25;24.02;;;19.38;;
6344;SDS011;3205;42.666;23.264;2023-09-07T04:56:51;22.75;;;18.55;;
6344;SDS011;3205;42.666;23.264;2023-09-07T05:05:17;23.70;;;17.08;;
6344;SDS011;3205;42.666;23.264;2023-09-07T05:07:44;22.90;;;17.40;;
6344;SDS011;3205;42.666;23.264;2023-09-07T05:10:10;23.17;;;17.27;;
6344;SDS011;3205;42.666;23.264;2023-09-07T05:12:37;23.90;;;17.33;;
6344;SDS011;3205;42.666;23.264;2023-09-07T05:15:04;25.83;;;17.40;;
6344;SDS011;3205;42.666;23.264;2023-09-07T05:17:32;20.55;;;16.08;;
6344;SDS011;3205;42.666;23.264;2023-09-07T05:19:59;21.08;;;15.90;;
6344;SDS011;3205;42.666;23.264;2023-09-07T05:22:32;21.27;;;15.38;;
6344;SDS011;3205;42.666;23.264;2023-09-07T05:25:28;19.83;;;14.93;;
6344;SDS011;3205;42.666;23.264;2023-09-07T05:27:55;21.92;;;16.02;;
6344;SDS011;3205;42.666;23.264;2023-09-07T05:30:27;18.63;;;15.75;;
6344;SDS011;3205;42.666;23.264;2023-09-07T05:32:53;21.70;;;15.48;;
6344;SDS011;3205;42.666;23.264;2023-09-07T05:35:19;20.40;;;14.85;;
6344;SDS011;3205;42.666;23.264;2023-09-07T05:37:45;28.85;;;15.55;;
6344;SDS011;3205;42.666;23.264;2023-09-07T05:40:13;22.70;;;15.98;;
6344;SDS011;3205;42.666;23.264;2023-09-07T05:42:40;21.30;;;15.40;;
6344;SDS011;3205;42.666;23.264;2023-09-07T05:45:07;28.08;;;16.13;;
6344;SDS011;3205;42.666;23.264;2023-09-07T05:47:33;19.73;;;16.00;;
6344;SDS011;3205;42.666;23.264;2023-09-07T05:49:59;25.85;;;15.55;;
6344;SDS011;3205;42.666;23.264;2023-09-07T05:52:26;21.55;;;15.10;;
6344;SDS011;3205;42.666;23.264;2023-09-07T05:54:52;25.50;;;16.13;;
6344;SDS011;3205;42.666;23.264;2023-09-07T05:57:18;21.52;;;15.30;;
6344;SDS011;3205;42.666;23.264;2023-09-07T05:59:44;20.67;;;15.65;;
6344;SDS011;3205;42.666;23.264;2023-09-07T06:02:10;19.63;;;15.18;;
6344;SDS011;3205;42.666;23.264;2023-09-07T06:04:37;19.05;;;15.23;;
6344;SDS011;3205;42.666;23.264;2023-09-07T06:07:03;28.20;;;15.35;;
6344;SDS011;3205;42.666;23.264;2023-09-07T06:09:29;24.08;;;14.70;;
6344;SDS011;3205;42.666;23.264;2023-09-07T06:11:55;17.08;;;14.70;;
6344;SDS011;3205;42.666;23.264;2023-09-07T06:14:21;20.42;;;14.65;;
6344;SDS011;3205;42.666;23.264;2023-09-07T06:16:48;18.05;;;13.70;;
6344;SDS011;3205;42.666;23.264;2023-09-07T06:19:14;18.67;;;13.52;;
6344;SDS011;3205;42.666;23.264;2023-09-07T06:21:41;16.90;;;11.95;;
6344;SDS011;3205;42.666;23.264;2023-09-07T06:24:07;16.05;;;11.85;;
6344;SDS011;3205;42.666;23.264;2023-09-07T06:26:33;15.18;;;10.85;;
6344;SDS011;3205;42.666;23.264;2023-09-07T06:28:59;13.98;;;11.18;;
6344;SDS011;3205;42.666;23.264;2023-09-07T06:31:32;23.40;;;10.65;;
6344;SDS011;3205;42.666;23.264;2023-09-07T06:33:59;14.55;;;9.25;;
6344;SDS011;3205;42.666;23.264;2023-09-07T06:36:25;12.23;;;8.98;;
6344;SDS011;3205;42.666;23.264;2023-09-07T06:38:51;12.30;;;9.02;;
6344;SDS011;3205;42.666;23.264;2023-09-07T06:41:17;12.02;;;8.07;;
6344;SDS011;3205;42.666;23.264;2023-09-07T06:43:43;10.27;;;8.32;;
6344;SDS011;3205;42.666;23.264;2023-09-07T06:46:10;13.13;;;7.90;;
6344;SDS011;3205;42.666;23.264;2023-09-07T06:48:36;10.55;;;8.50;;
6344;SDS011;3205;42.666;23.264;2023-09-07T06:51:03;14.68;;;7.72;;
6344;SDS011;3205;42.666;23.264;2023-09-07T06:53:30;9.43;;;7.32;;
6344;SDS011;3205;42.666;23.264;2023-09-07T06:55:59;8.27;;;7.22;;
6344;SDS011;3205;42.666;23.264;2023-09-07T06:58:25;11.15;;;7.40;;
6344;SDS011;3205;42.666;23.264;2023-09-07T07:00:51;9.23;;;8.32;;
6344;SDS011;3205;42.666;23.264;2023-09-07T07:03:18;7.63;;;6.85;;
6344;SDS011;3205;42.666;23.264;2023-09-07T07:05:44;13.25;;;7.68;;
6344;SDS011;3205;42.666;23.264;2023-09-07T07:08:10;11.07;;;7.90;;
6344;SDS011;3205;42.666;23.264;2023-09-07T07:10:37;11.55;;;7.40;;
6344;SDS011;3205;42.666;23.264;2023-09-07T07:13:03;9.20;;;7.63;;
6344;SDS011;3205;42.666;23.264;2023-09-07T07:15:29;11.32;;;7.32;;
6344;SDS011;3205;42.666;23.264;2023-09-07T07:17:55;8.25;;;7.30;;
6344;SDS011;3205;42.666;23.264;2023-09-07T07:20:21;10.52;;;7.47;;
6344;SDS011;3205;42.666;23.264;2023-09-07T07:22:47;8.52;;;7.28;;
6344;SDS011;3205;42.666;23.264;2023-09-07T07:25:14;10.10;;;7.07;;
6344;SDS011;3205;42.666;23.264;2023-09-07T07:27:40;9.80;;;7.45;;
6344;SDS011;3205;42.666;23.264;2023-09-07T07:30:07;10.02;;;8.55;;
6344;SDS011;3205;42.666;23.264;2023-09-07T07:32:33;7.82;;;7.13;;
6344;SDS011;3205;42.666;23.264;2023-09-07T07:34:59;11.32;;;7.30;;
6344;SDS011;3205;42.666;23.264;2023-09-07T07:37:25;13.43;;;6.72;;
6344;SDS011;3205;42.666;23.264;2023-09-07T07:39:52;10.48;;;7.18;;
6344;SDS011;3205;42.666;23.264;2023-09-07T07:42:18;8.07;;;6.80;;
6344;SDS011;3205;42.666;23.264;2023-09-07T07:44:45;7.95;;;7.18;;
6344;SDS011;3205;42.666;23.264;2023-09-07T07:47:11;12.65;;;7.82;;
6344;SDS011;3205;42.666;23.264;2023-09-07T07:49:37;11.23;;;7.88;;
6344;SDS011;3205;42.666;23.264;2023-09-07T07:52:04;10.10;;;8.18;;
6344;SDS011;3205;42.666;23.264;2023-09-07T07:54:30;8.52;;;7.68;;
6344;SDS011;3205;42.666;23.264;2023-09-07T07:56:58;11.48;;;7.68;;
6344;SDS011;3205;42.666;23.264;2023-09-07T07:59:25;11.77;;;7.68;;
6344;SDS011;3205;42.666;23.264;2023-09-07T08:01:51;10.45;;;7.50;;
6344;SDS011;3205;42.666;23.264;2023-09-07T08:04:17;11.93;;;7.85;;
6344;SDS011;3205;42.666;23.264;2023-09-07T08:06:44;12.30;;;8.35;;
6344;SDS011;3205;42.666;23.264;2023-09-07T08:09:10;11.25;;;8.05;;
6344;SDS011;3205;42.666;23.264;2023-09-07T08:11:38;12.65;;;8.00;;
6344;SDS011;3205;42.666;23.264;2023-09-07T08:14:04;11.40;;;8.40;;
6344;SDS011;3205;42.666;23.264;2023-09-07T08:16:31;9.10;;;8.20;;
6344;SDS011;3205;42.666;23.264;2023-09-07T08:18:57;11.02;;;7.90;;
6344;SDS011;3205;42.666;23.264;2023-09-07T08:21:23;15.50;;;7.82;;
6344;SDS011;3205;42.666;23.264;2023-09-07T08:23:49;10.35;;;7.60;;
6344;SDS011;3205;42.666;23.264;2023-09-07T08:26:18;9.25;;;7.15;;
6344;SDS011;3205;42.666;23.264;2023-09-07T08:28:45;11.88;;;7.28;;
6344;SDS011;3205;42.666;23.264;2023-09-07T08:31:11;14.05;;;7.55;;
6344;SDS011;3205;42.666;23.264;2023-09-07T08:33:40;14.00;;;7.32;;
6344;SDS011;3205;42.666;23.264;2023-09-07T08:36:06;14.40;;;7.25;;
6344;SDS011;3205;42.666;23.264;2023-09-07T08:38:34;8.05;;;7.18;;
6344;SDS011;3205;42.666;23.264;2023-09-07T08:41:01;9.93;;;6.88;;
6344;SDS011;3205;42.666;23.264;2023-09-07T08:43:30;8.13;;;6.47;;
6344;SDS011;3205;42.666;23.264;2023-09-07T08:46:01;7.60;;;6.75;;
6344;SDS011;3205;42.666;23.264;2023-09-07T08:48:32;10.57;;;7.25;;
6344;SDS011;3205;42.666;23.264;2023-09-07T08:51:01;9.63;;;6.93;;
6344;SDS011;3205;42.666;23.264;2023-09-07T08:53:29;7.28;;;6.45;;
6344;SDS011;3205;42.666;23.264;2023-09-07T08:55:56;9.02;;;6.78;;
6344;SDS011;3205;42.666;23.264;2023-09-07T08:58:23;10.68;;;7.78;;
6344;SDS011;3205;42.666;23.264;2023-09-07T09:00:49;9.65;;;7.10;;
6344;SDS011;3205;42.666;23.264;2023-09-07T09:03:17;11.00;;;7.28;;
6344;SDS011;3205;42.666;23.264;2023-09-07T09:05:43;8.57;;;6.22;;
6344;SDS011;3205;42.666;23.264;2023-09-07T09:08:13;12.32;;;7.43;;
6344;SDS011;3205;42.666;23.264;2023-09-07T09:10:39;9.05;;;7.10;;
6344;SDS011;3205;42.666;23.264;2023-09-07T09:13:05;9.43;;;6.85;;
6344;SDS011;3205;42.666;23.264;2023-09-07T09:15:31;10.57;;;7.10;;
6344;SDS011;3205;42.666;23.264;2023-09-07T09:17:57;9.35;;;6.72;;
6344;SDS011;3205;42.666;23.264;2023-09-07T09:20:24;11.23;;;6.35;;
6344;SDS011;3205;42.666;23.264;2023-09-07T09:22:52;9.75;;;6.40;;
6344;SDS011;3205;42.666;23.264;2023-09-07T09:25:20;8.02;;;6.38;;
6344;SDS011;3205;42.666;23.264;2023-09-07T09:27:46;13.85;;;6.25;;
6344;SDS011;3205;42.666;23.264;2023-09-07T09:30:13;7.00;;;5.43;;
6344;SDS011;3205;42.666;23.264;2023-09-07T09:32:41;12.38;;;5.80;;
6344;SDS011;3205;42.666;23.264;2023-09-07T09:35:07;6.57;;;5.57;;
6344;SDS011;3205;42.666;23.264;2023-09-07T09:37:34;10.43;;;5.93;;
6344;SDS011;3205;42.666;23.264;2023-09-07T09:40:09;8.30;;;6.15;;
6344;SDS011;3205;42.666;23.264;2023-09-07T09:42:37;8.45;;;6.32;;
6344;SDS011;3205;42.666;23.264;2023-09-07T09:45:04;9.40;;;6.43;;
6344;SDS011;3205;42.666;23.264;2023-09-07T09:47:33;10.13;;;6.10;;
6344;SDS011;3205;42.666;23.264;2023-09-07T09:50:02;8.75;;;6.25;;
6344;SDS011;3205;42.666;23.264;2023-09-07T09:52:31;10.65;;;5.75;;
6344;SDS011;3205;42.666;23.264;2023-09-07T09:54:59;9.07;;;6.30;;
6344;SDS011;3205;42.666;23.264;2023-09-07T09:57:26;6.10;;;5.45;;
6344;SDS011;3205;42.666;23.264;2023-09-07T09:59:54;7.05;;;5.95;;
6344;SDS011;3205;42.666;23.264;2023-09-07T10:02:21;7.53;;;5.80;;
6344;SDS011;3205;42.666;23.264;2023-09-07T10:04:47;6.30;;;5.65;;
6344;SDS011;3205;42.666;23.264;2023-09-07T10:07:13;12.18;;;5.93;;
6344;SDS011;3205;42.666;23.264;2023-09-07T10:09:40;10.93;;;5.88;;
6344;SDS011;3205;42.666;23.264;2023-09-07T10:12:11;8.88;;;5.60;;
6344;SDS011;3205;42.666;23.264;2023-09-07T10:14:37;8.55;;;6.07;;
6344;SDS011;3205;42.666;23.264;2023-09-07T10:17:05;6.65;;;5.47;;
6344;SDS011;3205;42.666;23.264;2023-09-07T10:19:34;7.43;;;5.45;;
6344;SDS011;3205;42.666;23.264;2023-09-07T10:22:24;10.60;;;5.57;;
6344;SDS011;3205;42.666;23.264;2023-09-07T10:25:05;8.98;;;4.68;;
6344;SDS011;3205;42.666;23.264;2023-09-07T10:27:42;13.48;;;5.43;;
6344;SDS011;3205;42.666;23.264;2023-09-07T10:30:09;6.72;;;5.18;;
6344;SDS011;3205;42.666;23.264;2023-09-07T10:32:38;7.85;;;5.07;;
6344;SDS011;3205;42.666;23.264;2023-09-07T10:35:11;8.90;;;5.47;;
6344;SDS011;3205;42.666;23.264;2023-09-07T10:37:41;9.57;;;5.82;;
6344;SDS011;3205;42.666;23.264;2023-09-07T10:40:10;7.63;;;5.47;;
6344;SDS011;3205;42.666;23.264;2023-09-07T10:42:37;6.03;;;5.40;;
6344;SDS011;3205;42.666;23.264;2023-09-07T10:45:08;8.20;;;5.57;;
6344;SDS011;3205;42.666;23.264;2023-09-07T10:47:35;8.30;;;6.03;;
6344;SDS011;3205;42.666;23.264;2023-09-07T10:50:06;11.60;;;5.93;;
6344;SDS011;3205;42.666;23.264;2023-09-07T10:52:33;13.25;;;6.10;;
6344;SDS011;3205;42.666;23.264;2023-09-07T10:54:59;6.90;;;6.20;;
6344;SDS011;3205;42.666;23.264;2023-09-07T10:57:25;8.27;;;6.00;;
6344;SDS011;3205;42.666;23.264;2023-09-07T10:59:52;10.90;;;5.55;;
6344;SDS011;3205;42.666;23.264;2023-09-07T11:02:20;9.70;;;6.25;;
6344;SDS011;3205;42.666;23.264;2023-09-07T11:04:46;7.78;;;5.90;;
6344;SDS011;3205;42.666;23.264;2023-09-07T11:07:13;18.42;;;6.03;;
6344;SDS011;3205;42.666;23.264;2023-09-07T11:09:39;14.05;;;6.38;;
6344;SDS011;3205;42.666;23.264;2023-09-07T11:12:06;9.65;;;6.35;;
6344;SDS011;3205;42.666;23.264;2023-09-07T11:14:33;10.18;;;6.30;;
6344;SDS011;3205;42.666;23.264;2023-09-07T11:17:00;13.63;;;6.03;;
6344;SDS011;3205;42.666;23.264;2023-09-07T11:19:31;14.70;;;6.90;;
6344;SDS011;3205;42.666;23.264;2023-09-07T11:21:57;9.32;;;5.20;;
6344;SDS011;3205;42.666;23.264;2023-09-07T11:24:24;11.60;;;5.63;;
6344;SDS011;3205;42.666;23.264;2023-09-07T11:26:51;9.48;;;6.10;;
6344;SDS011;3205;42.666;23.264;2023-09-07T11:29:17;13.55;;;6.05;;
6344;SDS011;3205;42.666;23.264;2023-09-07T11:31:44;11.82;;;5.47;;
6344;SDS011;3205;42.666;23.264;2023-09-07T11:34:10;6.63;;;4.72;;
6344;SDS011;3205;42.666;23.264;2023-09-07T11:36:36;7.80;;;5.47;;
6344;SDS011;3205;42.666;23.264;2023-09-07T11:39:02;7.43;;;5.43;;
6344;SDS011;3205;42.666;23.264;2023-09-07T11:41:34;8.43;;;5.38;;
6344;SDS011;3205;42.666;23.264;2023-09-07T11:44:00;6.05;;;4.57;;
6344;SDS011;3205;42.666;23.264;2023-09-07T11:46:26;7.82;;;4.95;;
6344;SDS011;3205;42.666;23.264;2023-09-07T11:48:52;10.25;;;5.45;;
6344;SDS011;3205;42.666;23.264;2023-09-07T11:51:18;8.82;;;5.15;;
6344;SDS011;3205;42.666;23.264;2023-09-07T11:53:46;5.60;;;5.00;;
6344;SDS011;3205;42.666;23.264;2023-09-07T11:56:12;6.45;;;5.03;;
6344;SDS011;3205;42.666;23.264;2023-09-07T11:58:39;13.10;;;5.60;;
6344;SDS011;3205;42.666;23.264;2023-09-07T12:01:05;9.48;;;4.93;;
6344;SDS011;3205;42.666;23.264;2023-09-07T12:03:31;8.65;;;4.85;;
6344;SDS011;3205;42.666;23.264;2023-09-07T12:05:58;9.30;;;5.32;;
6344;SDS011;3205;42.666;23.264;2023-09-07T12:08:24;10.43;;;5.65;;
6344;SDS011;3205;42.666;23.264;2023-09-07T12:10:50;7.90;;;4.95;;
6344;SDS011;3205;42.666;23.264;2023-09-07T12:13:16;8.85;;;4.93;;
6344;SDS011;3205;42.666;23.264;2023-09-07T12:15:43;8.98;;;5.10;;
6344;SDS011;3205;42.666;23.264;2023-09-07T12:18:09;9.85;;;5.07;;
6344;SDS011;3205;42.666;23.264;2023-09-07T12:20:35;16.20;;;5.28;;
6344;SDS011;3205;42.666;23.264;2023-09-07T12:23:01;8.38;;;5.60;;
6344;SDS011;3205;42.666;23.264;2023-09-07T12:25:28;10.73;;;4.95;;
6344;SDS011;3205;42.666;23.264;2023-09-07T12:27:54;11.77;;;5.63;;
6344;SDS011;3205;42.666;23.264;2023-09-07T12:30:21;5.07;;;4.47;;
6344;SDS011;3205;42.666;23.264;2023-09-07T12:32:50;7.65;;;4.95;;
6344;SDS011;3205;42.666;23.264;2023-09-07T12:35:16;5.93;;;4.82;;
6344;SDS011;3205;42.666;23.264;2023-09-07T12:37:56;7.78;;;5.13;;
6344;SDS011;3205;42.666;23.264;2023-09-07T12:41:00;10.30;;;4.80;;
6344;SDS011;3205;42.666;23.264;2023-09-07T12:43:27;11.05;;;6.40;;
6344;SDS011;3205;42.666;23.264;2023-09-07T12:45:54;14.85;;;6.30;;
6344;SDS011;3205;42.666;23.264;2023-09-07T12:48:21;13.02;;;5.55;;
6344;SDS011;3205;42.666;23.264;2023-09-07T12:50:47;10.15;;;5.40;;
6344;SDS011;3205;42.666;23.264;2023-09-07T12:53:14;5.07;;;4.55;;
6344;SDS011;3205;42.666;23.264;2023-09-07T12:55:40;9.38;;;4.63;;
6344;SDS011;3205;42.666;23.264;2023-09-07T12:58:06;9.45;;;5.43;;
6344;SDS011;3205;42.666;23.264;2023-09-07T13:00:32;7.60;;;5.43;;
6344;SDS011;3205;42.666;23.264;2023-09-07T13:02:58;11.63;;;5.05;;
6344;SDS011;3205;42.666;23.264;2023-09-07T13:05:25;8.07;;;4.75;;
6344;SDS011;3205;42.666;23.264;2023-09-07T13:08:10;9.43;;;5.00;;
6344;SDS011;3205;42.666;23.264;2023-09-07T13:10:36;8.98;;;4.63;;
6344;SDS011;3205;42.666;23.264;2023-09-07T13:13:02;8.30;;;4.22;;
6344;SDS011;3205;42.666;23.264;2023-09-07T13:15:29;11.23;;;4.75;;
6344;SDS011;3205;42.666;23.264;2023-09-07T13:17:55;7.45;;;4.60;;
6344;SDS011;3205;42.666;23.264;2023-09-07T13:20:28;6.90;;;4.82;;
6344;SDS011;3205;42.666;23.264;2023-09-07T13:23:03;7.05;;;4.40;;
6344;SDS011;3205;42.666;23.264;2023-09-07T13:25:29;13.75;;;5.05;;
6344;SDS011;3205;42.666;23.264;2023-09-07T13:27:55;15.77;;;4.97;;
6344;SDS011;3205;42.666;23.264;2023-09-07T13:30:21;10.15;;;5.18;;
6344;SDS011;3205;42.666;23.264;2023-09-07T13:32:53;8.02;;;5.05;;
6344;SDS011;3205;42.666;23.264;2023-09-07T13:35:40;4.82;;;4.32;;
6344;SDS011;3205;42.666;23.264;2023-09-07T13:38:06;10.57;;;5.35;;
6344;SDS011;3205;42.666;23.264;2023-09-07T13:40:32;12.85;;;5.10;;
6344;SDS011;3205;42.666;23.264;2023-09-07T13:42:58;9.48;;;4.90;;
6344;SDS011;3205;42.666;23.264;2023-09-07T13:45:25;5.15;;;3.95;;
6344;SDS011;3205;42.666;23.264;2023-09-07T13:47:51;7.95;;;4.55;;
6344;SDS011;3205;42.666;23.264;2023-09-07T13:50:17;7.15;;;4.93;;
6344;SDS011;3205;42.666;23.264;2023-09-07T13:52:44;5.75;;;4.70;;
6344;SDS011;3205;42.666;23.264;2023-09-07T13:55:10;6.93;;;4.68;;
6344;SDS011;3205;42.666;23.264;2023-09-07T13:57:36;8.77;;;5.00;;
6344;SDS011;3205;42.666;23.264;2023-09-07T14:00:02;11.88;;;4.55;;
6344;SDS011;3205;42.666;23.264;2023-09-07T14:02:30;10.23;;;4.90;;
6344;SDS011;3205;42.666;23.264;2023-09-07T14:04:57;6.80;;;5.18;;
6344;SDS011;3205;42.666;23.264;2023-09-07T14:07:23;9.30;;;4.85;;
6344;SDS011;3205;42.666;23.264;2023-09-07T14:09:51;7.53;;;4.25;;
6344;SDS011;3205;42.666;23.264;2023-09-07T14:12:17;7.13;;;5.07;;
6344;SDS011;3205;42.666;23.264;2023-09-07T14:14:43;7.60;;;4.68;;
6344;SDS011;3205;42.666;23.264;2023-09-07T14:17:09;9.75;;;4.90;;
6344;SDS011;3205;42.666;23.264;2023-09-07T14:19:35;7.10;;;5.45;;
6344;SDS011;3205;42.666;23.264;2023-09-07T14:22:02;11.48;;;5.53;;
6344;SDS011;3205;42.666;23.264;2023-09-07T14:24:28;6.28;;;5.15;;
6344;SDS011;3205;42.666;23.264;2023-09-07T14:26:55;8.60;;;5.40;;
6344;SDS011;3205;42.666;23.264;2023-09-07T14:29:21;14.90;;;5.25;;
6344;SDS011;3205;42.666;23.264;2023-09-07T14:31:47;12.15;;;5.72;;
6344;SDS011;3205;42.666;23.264;2023-09-07T14:34:13;6.20;;;5.50;;
6344;SDS011;3205;42.666;23.264;2023-09-07T14:36:39;4.80;;;4.40;;
6344;SDS011;3205;42.666;23.264;2023-09-07T14:39:06;10.85;;;4.93;;
6344;SDS011;3205;42.666;23.264;2023-09-07T14:41:33;7.75;;;5.30;;
6344;SDS011;3205;42.666;23.264;2023-09-07T14:44:00;11.77;;;5.13;;
6344;SDS011;3205;42.666;23.264;2023-09-07T14:46:26;6.57;;;5.28;;
6344;SDS011;3205;42.666;23.264;2023-09-07T14:48:52;9.32;;;4.85;;
6344;SDS011;3205;42.666;23.264;2023-09-07T14:51:18;8.48;;;4.80;;
6344;SDS011;3205;42.666;23.264;2023-09-07T14:53:45;8.63;;;5.10;;
6344;SDS011;3205;42.666;23.264;2023-09-07T14:56:12;10.35;;;4.78;;